Accueil
METAR-TAF:

METAR-TAF

Aéroports :

Hô-Chi-Minh-Ville, Viêtnam

Aéroport international de Tân Sơn Nhất

latitude: 10-49N, longitude: 106-40E, altitude: 19 m

Observation

Le bulletin a été fait il y a 11 minutes, à 03:00 UTC
Vent 2 kt de direction variable
Température 33°C
Humidité 59%
Pression 1009 hPa
Visibilité 10 km ou plus
Nuages fragmentés à une hauteur de 1700 ft

METAR: VVTS 250300Z VRB02KT 9999 BKN017 33/24 Q1009 NOSIG

Heure: 10:11 (03:11 UTC)

Prévision

Le bulletin a été fait il y a 4 heures et 11 minutes, à 23:00 UTC
Prévision valable du 25 à 00 UTC au 26 à 06 UTC
Vent 8 kt de sud/sud-est
Visibilité 10 km ou plus
Nuages épars à une hauteur de 1700 ft
Temporairement
du 25 à 07 UTC au 25 à 12 UTC
Nuages épars à une hauteur de 1500 ft
Quelques nuages à une hauteur de 1700 ft, Cumulonimbus.
orage

TAF: VVTS 242300Z 2500/2606 16008KT 9999 SCT017 TEMPO 2507/2512 TS SCT015 FEW017CB

Observations et prévisions météorologiques de plus de 4000 aéroports (messages METAR et TAF).

Les stations disponibles sont représentées par des disques jaunes et rouges sur la carte.

Passer la souris dessus pour voir le nom de la station.

Cliquer dessus pour voir les observations et prévisions météorologiques.

Pour changer de carte: cliquez sur les boutons verts avec une croix noire pour zoomer, sur le bouton vert avec un tiret pour effectuer un zoom arrière, ou sur les flèches vertes pour les cartes adjacentes.


METAR-TAF: